sensor_id;sensor_type;location;lat;lon;timestamp;pressure;altitude;pressure_sealevel;temperature;humidity
11049;BME280;5577;42.706;23.160;2023-04-01T00:00:24;93253.34;;;13.66;53.22
11049;BME280;5577;42.706;23.160;2023-04-01T00:03:08;93257.88;;;13.69;53.09
11049;BME280;5577;42.706;23.160;2023-04-01T00:05:57;93264.00;;;13.63;53.08
11049;BME280;5577;42.706;23.160;2023-04-01T00:08:41;93261.69;;;13.68;52.83
11049;BME280;5577;42.706;23.160;2023-04-01T00:11:25;93266.22;;;13.75;52.69
11049;BME280;5577;42.706;23.160;2023-04-01T00:14:11;93258.28;;;13.71;52.81
11049;BME280;5577;42.706;23.160;2023-04-01T00:16:55;93259.44;;;13.70;52.97
11049;BME280;5577;42.706;23.160;2023-04-01T00:19:39;93249.56;;;13.67;53.24
11049;BME280;5577;42.706;23.160;2023-04-01T00:22:24;93257.53;;;13.67;54.30
11049;BME280;5577;42.706;23.160;2023-04-01T00:25:09;93243.13;;;13.54;56.01
11049;BME280;5577;42.706;23.160;2023-04-01T00:27:53;93232.09;;;13.52;55.75
11049;BME280;5577;42.706;23.160;2023-04-01T00:30:37;93237.44;;;13.45;56.48
11049;BME280;5577;42.706;23.160;2023-04-01T00:33:21;93232.94;;;13.42;55.44
11049;BME280;5577;42.706;23.160;2023-04-01T00:36:07;93225.69;;;13.43;55.36
11049;BME280;5577;42.706;23.160;2023-04-01T00:38:52;93222.28;;;13.42;54.93
11049;BME280;5577;42.706;23.160;2023-04-01T00:41:35;93202.94;;;13.35;54.61
11049;BME280;5577;42.706;23.160;2023-04-01T00:44:23;93153.31;;;13.00;54.63
11049;BME280;5577;42.706;23.160;2023-04-01T00:47:07;93201.78;;;13.39;54.45
11049;BME280;5577;42.706;23.160;2023-04-01T00:49:53;93210.88;;;13.42;54.01
11049;BME280;5577;42.706;23.160;2023-04-01T00:52:38;93206.31;;;13.49;53.53
11049;BME280;5577;42.706;23.160;2023-04-01T00:55:23;93197.97;;;13.51;53.49
11049;BME280;5577;42.706;23.160;2023-04-01T00:58:08;93114.97;;;12.91;53.67
11049;BME280;5577;42.706;23.160;2023-04-01T01:00:55;93190.38;;;13.46;53.37
11049;BME280;5577;42.706;23.160;2023-04-01T01:03:40;93174.81;;;13.48;53.33
11049;BME280;5577;42.706;23.160;2023-04-01T01:10:02;93170.22;;;13.52;52.73
11049;BME280;5577;42.706;23.160;2023-04-01T01:25:25;93140.66;;;13.39;52.70
11049;BME280;5577;42.706;23.160;2023-04-01T01:28:32;93147.84;;;13.39;52.28
11049;BME280;5577;42.706;23.160;2023-04-01T01:37:37;93157.69;;;13.45;51.62
11049;BME280;5577;42.706;23.160;2023-04-01T01:40:25;93151.22;;;13.53;51.56
11049;BME280;5577;42.706;23.160;2023-04-01T01:43:13;93151.97;;;13.54;51.59
11049;BME280;5577;42.706;23.160;2023-04-01T01:46:03;93148.19;;;13.55;51.77
11049;BME280;5577;42.706;23.160;2023-04-01T01:48:49;93136.41;;;13.52;51.51
11049;BME280;5577;42.706;23.160;2023-04-01T01:51:34;93134.13;;;13.54;51.33
11049;BME280;5577;42.706;23.160;2023-04-01T01:54:18;93152.34;;;13.52;51.29
11049;BME280;5577;42.706;23.160;2023-04-01T01:57:07;93120.47;;;13.45;51.19
11049;BME280;5577;42.706;23.160;2023-04-01T01:59:58;93118.19;;;13.47;51.67
11049;BME280;5577;42.706;23.160;2023-04-01T02:02:46;93122.75;;;13.50;51.94
11049;BME280;5577;42.706;23.160;2023-04-01T02:05:31;93102.66;;;13.42;51.36
11049;BME280;5577;42.706;23.160;2023-04-01T02:08:20;93114.81;;;13.40;52.00
11049;BME280;5577;42.706;23.160;2023-04-01T02:11:08;93120.50;;;13.42;51.59
11049;BME280;5577;42.706;23.160;2023-04-01T02:14:02;93114.03;;;13.43;52.17
11049;BME280;5577;42.706;23.160;2023-04-01T02:16:57;93109.94;;;13.28;51.82
11049;BME280;5577;42.706;23.160;2023-04-01T02:22:33;93108.03;;;13.35;52.47
11049;BME280;5577;42.706;23.160;2023-04-01T02:25:29;93111.81;;;13.31;52.56
11049;BME280;5577;42.706;23.160;2023-04-01T02:28:14;93105.78;;;13.27;52.41
11049;BME280;5577;42.706;23.160;2023-04-01T02:31:03;93114.09;;;13.29;52.19
11049;BME280;5577;42.706;23.160;2023-04-01T02:33:48;93125.47;;;13.33;52.31
11049;BME280;5577;42.706;23.160;2023-04-01T02:36:32;93127.38;;;13.39;51.75
11049;BME280;5577;42.706;23.160;2023-04-01T02:39:18;93126.25;;;13.37;52.55
11049;BME280;5577;42.706;23.160;2023-04-01T02:42:02;93128.91;;;13.37;52.30
11049;BME280;5577;42.706;23.160;2023-04-01T02:44:46;93115.22;;;13.31;52.05
11049;BME280;5577;42.706;23.160;2023-04-01T02:47:31;93133.81;;;13.35;52.43
11049;BME280;5577;42.706;23.160;2023-04-01T02:50:15;93136.88;;;13.37;52.42
11049;BME280;5577;42.706;23.160;2023-04-01T02:52:59;93155.09;;;13.35;52.83
11049;BME280;5577;42.706;23.160;2023-04-01T02:55:43;93158.88;;;13.37;52.51
11049;BME280;5577;42.706;23.160;2023-04-01T02:58:28;93171.44;;;13.33;54.66
11049;BME280;5577;42.706;23.160;2023-04-01T03:01:12;93176.03;;;13.22;55.30
11049;BME280;5577;42.706;23.160;2023-04-01T03:03:56;93171.84;;;13.18;55.32
11049;BME280;5577;42.706;23.160;2023-04-01T03:06:40;93168.09;;;13.08;56.71
11049;BME280;5577;42.706;23.160;2023-04-01T03:09:24;93125.28;;;12.64;57.31
11049;BME280;5577;42.706;23.160;2023-04-01T03:12:08;93171.53;;;12.81;60.87
11049;BME280;5577;42.706;23.160;2023-04-01T03:14:52;93175.31;;;12.73;61.53
11049;BME280;5577;42.706;23.160;2023-04-01T03:17:36;93165.88;;;12.68;63.54
11049;BME280;5577;42.706;23.160;2023-04-01T03:20:20;93178.38;;;12.50;64.45
11049;BME280;5577;42.706;23.160;2023-04-01T03:23:04;93178.38;;;12.26;69.57
11049;BME280;5577;42.706;23.160;2023-04-01T03:25:47;93168.91;;;12.14;74.23
11049;BME280;5577;42.706;23.160;2023-04-01T03:28:31;93151.44;;;11.96;84.33
11049;BME280;5577;42.706;23.160;2023-04-01T03:31:15;93146.13;;;11.78;91.51
11049;BME280;5577;42.706;23.160;2023-04-01T03:33:59;93115.44;;;11.70;92.22
11049;BME280;5577;42.706;23.160;2023-04-01T03:36:43;93104.44;;;11.72;95.18
11049;BME280;5577;42.706;23.160;2023-04-01T03:39:28;93095.72;;;11.68;100.00
11049;BME280;5577;42.706;23.160;2023-04-01T03:42:12;93092.72;;;11.66;100.00
11049;BME280;5577;42.706;23.160;2023-04-01T03:44:56;93084.34;;;11.63;100.00
11049;BME280;5577;42.706;23.160;2023-04-01T03:47:40;93085.03;;;11.36;100.00
11049;BME280;5577;42.706;23.160;2023-04-01T03:50:24;93075.59;;;11.35;100.00
11049;BME280;5577;42.706;23.160;2023-04-01T03:53:09;93067.25;;;11.29;100.00
11049;BME280;5577;42.706;23.160;2023-04-01T03:55:53;93062.69;;;11.26;100.00
11049;BME280;5577;42.706;23.160;2023-04-01T03:58:37;93044.16;;;11.26;100.00
11049;BME280;5577;42.706;23.160;2023-04-01T04:01:22;93049.44;;;11.23;100.00
11049;BME280;5577;42.706;23.160;2023-04-01T04:04:07;93045.59;;;11.10;100.00
11049;BME280;5577;42.706;23.160;2023-04-01T04:06:54;93047.44;;;10.88;100.00
11049;BME280;5577;42.706;23.160;2023-04-01T04:09:38;93045.47;;;10.75;100.00
11049;BME280;5577;42.706;23.160;2023-04-01T04:12:23;93042.06;;;10.71;100.00
11049;BME280;5577;42.706;23.160;2023-04-01T04:15:08;93030.03;;;10.80;100.00
11049;BME280;5577;42.706;23.160;2023-04-01T04:17:52;93047.41;;;10.85;100.00
11049;BME280;5577;42.706;23.160;2023-04-01T04:20:36;93032.28;;;10.82;100.00
11049;BME280;5577;42.706;23.160;2023-04-01T04:23:20;93033.78;;;10.79;100.00
11049;BME280;5577;42.706;23.160;2023-04-01T04:26:06;93031.09;;;10.72;100.00
11049;BME280;5577;42.706;23.160;2023-04-01T04:28:51;93019.41;;;10.73;100.00
11049;BME280;5577;42.706;23.160;2023-04-01T04:31:35;93026.19;;;10.71;100.00
11049;BME280;5577;42.706;23.160;2023-04-01T04:34:19;93024.63;;;10.52;100.00
11049;BME280;5577;42.706;23.160;2023-04-01T04:37:03;93017.34;;;10.39;100.00
11049;BME280;5577;42.706;23.160;2023-04-01T04:39:47;93018.03;;;10.25;100.00
11049;BME280;5577;42.706;23.160;2023-04-01T04:42:31;93019.94;;;10.28;100.00
11049;BME280;5577;42.706;23.160;2023-04-01T04:45:15;93004.41;;;10.20;100.00
11049;BME280;5577;42.706;23.160;2023-04-01T04:47:59;92995.28;;;10.07;100.00
11049;BME280;5577;42.706;23.160;2023-04-01T04:50:45;92997.06;;;9.96;100.00
11049;BME280;5577;42.706;23.160;2023-04-01T04:53:29;92989.13;;;9.96;100.00
11049;BME280;5577;42.706;23.160;2023-04-01T04:56:17;92994.28;;;9.78;100.00
11049;BME280;5577;42.706;23.160;2023-04-01T04:59:02;92989.06;;;9.85;100.00
11049;BME280;5577;42.706;23.160;2023-04-01T05:01:46;92953.00;;;9.56;100.00
11049;BME280;5577;42.706;23.160;2023-04-01T05:04:34;92924.16;;;9.30;100.00
11049;BME280;5577;42.706;23.160;2023-04-01T05:07:19;92973.72;;;9.51;100.00
11049;BME280;5577;42.706;23.160;2023-04-01T05:10:03;92965.44;;;9.52;100.00
11049;BME280;5577;42.706;23.160;2023-04-01T05:12:48;92958.22;;;9.49;100.00
11049;BME280;5577;42.706;23.160;2023-04-01T05:15:32;92949.13;;;9.43;100.00
11049;BME280;5577;42.706;23.160;2023-04-01T05:18:16;92930.22;;;9.34;100.00
11049;BME280;5577;42.706;23.160;2023-04-01T05:21:00;92942.38;;;9.46;100.00
11049;BME280;5577;42.706;23.160;2023-04-01T05:23:44;92962.81;;;9.56;100.00
11049;BME280;5577;42.706;23.160;2023-04-01T05:26:28;92961.69;;;9.60;100.00
11049;BME280;5577;42.706;23.160;2023-04-01T05:29:12;92958.06;;;9.79;100.00
11049;BME280;5577;42.706;23.160;2023-04-01T05:31:55;92957.41;;;9.96;100.00
11049;BME280;5577;42.706;23.160;2023-04-01T05:34:39;92932.22;;;10.12;100.00
11049;BME280;5577;42.706;23.160;2023-04-01T05:37:23;92942.13;;;10.26;100.00
11049;BME280;5577;42.706;23.160;2023-04-01T05:40:08;92945.19;;;10.42;100.00
11049;BME280;5577;42.706;23.160;2023-04-01T05:42:52;92940.00;;;10.66;100.00
11049;BME280;5577;42.706;23.160;2023-04-01T05:45:36;92946.09;;;10.98;100.00
11049;BME280;5577;42.706;23.160;2023-04-01T05:48:21;92936.69;;;11.71;100.00
11049;BME280;5577;42.706;23.160;2023-04-01T05:51:05;92923.09;;;12.66;81.08
11049;BME280;5577;42.706;23.160;2023-04-01T05:53:49;92932.53;;;13.42;70.49
11049;BME280;5577;42.706;23.160;2023-04-01T05:56:33;92921.75;;;14.00;63.46
11049;BME280;5577;42.706;23.160;2023-04-01T05:59:17;92922.03;;;14.47;59.44
11049;BME280;5577;42.706;23.160;2023-04-01T06:02:01;92921.44;;;14.66;57.14
11049;BME280;5577;42.706;23.160;2023-04-01T06:04:45;92907.94;;;14.80;56.10
11049;BME280;5577;42.706;23.160;2023-04-01T06:07:29;92905.59;;;14.82;56.05
11049;BME280;5577;42.706;23.160;2023-04-01T06:10:20;92906.78;;;14.81;55.17
11049;BME280;5577;42.706;23.160;2023-04-01T06:13:12;92917.16;;;14.72;54.08
11049;BME280;5577;42.706;23.160;2023-04-01T06:19:16;92911.09;;;14.71;53.25
11049;BME280;5577;42.706;23.160;2023-04-01T06:50:01;92882.28;;;14.89;54.65
11049;BME280;5577;42.706;23.160;2023-04-01T06:55:44;92891.78;;;14.90;52.56
11049;BME280;5577;42.706;23.160;2023-04-01T06:58:42;92880.72;;;14.92;53.44
11049;BME280;5577;42.706;23.160;2023-04-01T07:01:50;92893.91;;;14.46;64.03
11049;BME280;5577;42.706;23.160;2023-04-01T07:04:44;92889.72;;;14.11;58.72
11049;BME280;5577;42.706;23.160;2023-04-01T07:07:46;92881.28;;;14.50;62.68
11049;BME280;5577;42.706;23.160;2023-04-01T07:10:46;92902.53;;;13.82;76.73
11049;BME280;5577;42.706;23.160;2023-04-01T07:13:41;92907.06;;;13.45;86.18
11049;BME280;5577;42.706;23.160;2023-04-01T07:16:32;92897.22;;;13.38;88.83
11049;BME280;5577;42.706;23.160;2023-04-01T07:19:31;92889.44;;;13.65;69.56
11049;BME280;5577;42.706;23.160;2023-04-01T07:22:41;92868.44;;;13.74;81.23
11049;BME280;5577;42.706;23.160;2023-04-01T07:25:38;92899.88;;;13.86;86.33
11049;BME280;5577;42.706;23.160;2023-04-01T07:28:22;92874.53;;;13.71;87.46
11049;BME280;5577;42.706;23.160;2023-04-01T07:31:22;92892.09;;;14.02;90.71
11049;BME280;5577;42.706;23.160;2023-04-01T07:40:04;92893.53;;;13.69;89.12
11049;BME280;5577;42.706;23.160;2023-04-01T07:49:16;92894.50;;;13.45;91.31
11049;BME280;5577;42.706;23.160;2023-04-01T07:52:25;92897.53;;;13.47;91.54
11049;BME280;5577;42.706;23.160;2023-04-01T08:07:36;92855.38;;;13.05;92.22
11049;BME280;5577;42.706;23.160;2023-04-01T08:13:50;92840.91;;;13.10;92.19
11049;BME280;5577;42.706;23.160;2023-04-01T08:16:47;92820.16;;;13.38;90.90
11049;BME280;5577;42.706;23.160;2023-04-01T08:20:10;92829.66;;;13.76;88.92
11049;BME280;5577;42.706;23.160;2023-04-01T08:26:09;92821.97;;;14.15;82.04
11049;BME280;5577;42.706;23.160;2023-04-01T08:29:10;92818.66;;;14.42;79.25
11049;BME280;5577;42.706;23.160;2023-04-01T08:32:09;92809.56;;;14.92;79.35
11049;BME280;5577;42.706;23.160;2023-04-01T08:37:49;92790.00;;;15.48;76.10
11049;BME280;5577;42.706;23.160;2023-04-01T08:40:58;92780.00;;;16.30;71.79
11049;BME280;5577;42.706;23.160;2023-04-01T08:43:59;92785.31;;;17.01;68.76
11049;BME280;5577;42.706;23.160;2023-04-01T08:56:26;92776.38;;;16.92;53.83
11049;BME280;5577;42.706;23.160;2023-04-01T08:59:24;92782.13;;;16.74;47.79
11049;BME280;5577;42.706;23.160;2023-04-01T09:02:33;92774.19;;;16.55;47.29
11049;BME280;5577;42.706;23.160;2023-04-01T09:05:31;92775.41;;;16.50;47.06
11049;BME280;5577;42.706;23.160;2023-04-01T09:17:36;92763.41;;;16.58;45.34
11049;BME280;5577;42.706;23.160;2023-04-01T09:42:47;92697.72;;;17.22;43.65
11049;BME280;5577;42.706;23.160;2023-04-01T09:55:06;92683.06;;;18.37;41.09
11049;BME280;5577;42.706;23.160;2023-04-01T10:25:37;92635.56;;;18.00;44.75
11049;BME280;5577;42.706;23.160;2023-04-01T10:32:18;92630.81;;;17.66;44.12
11049;BME280;5577;42.706;23.160;2023-04-01T10:45:14;92601.41;;;17.38;44.15
11049;BME280;5577;42.706;23.160;2023-04-01T10:48:24;92597.47;;;17.42;44.37
11049;BME280;5577;42.706;23.160;2023-04-01T10:55:00;92599.13;;;17.65;43.76
11049;BME280;5577;42.706;23.160;2023-04-01T11:01:53;92583.94;;;17.74;45.13
11049;BME280;5577;42.706;23.160;2023-04-01T11:08:21;92591.50;;;17.63;44.87
11049;BME280;5577;42.706;23.160;2023-04-01T11:44:28;92845.09;;;10.68;100.00
11049;BME280;5577;42.706;23.160;2023-04-01T11:47:34;92847.72;;;10.58;100.00
11049;BME280;5577;42.706;23.160;2023-04-01T12:06:11;92864.38;;;11.00;100.00
11049;BME280;5577;42.706;23.160;2023-04-01T12:15:34;92863.63;;;11.03;100.00
11049;BME280;5577;42.706;23.160;2023-04-01T12:18:40;92879.16;;;11.12;100.00
11049;BME280;5577;42.706;23.160;2023-04-01T12:21:52;92871.22;;;11.08;100.00
11049;BME280;5577;42.706;23.160;2023-04-01T12:25:14;92885.22;;;11.12;100.00
11049;BME280;5577;42.706;23.160;2023-04-01T12:28:06;92879.53;;;11.07;100.00
11049;BME280;5577;42.706;23.160;2023-04-01T12:31:03;92883.31;;;10.88;100.00
11049;BME280;5577;42.706;23.160;2023-04-01T12:45:30;92832.16;;;10.32;100.00
11049;BME280;5577;42.706;23.160;2023-04-01T12:51:22;92812.91;;;10.28;100.00
11049;BME280;5577;42.706;23.160;2023-04-01T12:58:15;92802.72;;;10.54;100.00
11049;BME280;5577;42.706;23.160;2023-04-01T13:01:30;92800.88;;;10.76;100.00
11049;BME280;5577;42.706;23.160;2023-04-01T13:04:37;92800.09;;;11.00;100.00
11049;BME280;5577;42.706;23.160;2023-04-01T13:16:05;92770.72;;;11.95;100.00
11049;BME280;5577;42.706;23.160;2023-04-01T13:22:20;92769.53;;;12.03;100.00
11049;BME280;5577;42.706;23.160;2023-04-01T13:25:39;92763.47;;;12.64;100.00
11049;BME280;5577;42.706;23.160;2023-04-01T13:28:34;92749.34;;;13.88;100.00
11049;BME280;5577;42.706;23.160;2023-04-01T13:34:39;92711.69;;;21.50;69.02
11049;BME280;5577;42.706;23.160;2023-04-01T13:40:48;92697.75;;;25.43;46.50
11049;BME280;5577;42.706;23.160;2023-04-01T13:43:39;92692.34;;;21.07;53.81
11049;BME280;5577;42.706;23.160;2023-04-01T13:55:51;92672.19;;;23.79;45.89
11049;BME280;5577;42.706;23.160;2023-04-01T14:14:36;92657.31;;;20.10;49.69
11049;BME280;5577;42.706;23.160;2023-04-01T14:17:40;92661.38;;;17.94;59.71
11049;BME280;5577;42.706;23.160;2023-04-01T14:20:40;92650.34;;;19.13;54.91
11049;BME280;5577;42.706;23.160;2023-04-01T14:27:23;92625.84;;;21.25;47.60
11049;BME280;5577;42.706;23.160;2023-04-01T14:33:30;92609.66;;;21.70;47.94
11049;BME280;5577;42.706;23.160;2023-04-01T14:46:34;92623.41;;;19.29;52.53
11049;BME280;5577;42.706;23.160;2023-04-01T14:49:34;92629.13;;;19.06;51.72
11049;BME280;5577;42.706;23.160;2023-04-01T14:52:32;92623.91;;;18.19;56.91
11049;BME280;5577;42.706;23.160;2023-04-01T14:58:18;92631.31;;;18.15;58.22
11049;BME280;5577;42.706;23.160;2023-04-01T15:13:10;92642.38;;;15.39;98.26
11049;BME280;5577;42.706;23.160;2023-04-01T15:32:29;92660.22;;;14.03;100.00
11049;BME280;5577;42.706;23.160;2023-04-01T15:38:33;92782.69;;;13.63;100.00
11049;BME280;5577;42.706;23.160;2023-04-01T15:44:44;92820.88;;;11.26;100.00
11049;BME280;5577;42.706;23.160;2023-04-01T15:47:37;92839.81;;;10.72;100.00
11049;BME280;5577;42.706;23.160;2023-04-01T15:50:26;92859.00;;;10.27;100.00
11049;BME280;5577;42.706;23.160;2023-04-01T15:53:23;92858.78;;;9.78;100.00
11049;BME280;5577;42.706;23.160;2023-04-01T15:56:32;92905.41;;;9.46;100.00
11049;BME280;5577;42.706;23.160;2023-04-01T15:59:28;92920.75;;;8.86;100.00
11049;BME280;5577;42.706;23.160;2023-04-01T16:02:21;92933.66;;;8.54;100.00
11049;BME280;5577;42.706;23.160;2023-04-01T16:08:22;92924.34;;;8.31;100.00
11049;BME280;5577;42.706;23.160;2023-04-01T16:14:29;92977.34;;;8.22;100.00
11049;BME280;5577;42.706;23.160;2023-04-01T16:20:25;92973.97;;;8.25;100.00
11049;BME280;5577;42.706;23.160;2023-04-01T16:26:34;92980.53;;;8.38;100.00
11049;BME280;5577;42.706;23.160;2023-04-01T16:35:28;92989.78;;;8.25;100.00
11049;BME280;5577;42.706;23.160;2023-04-01T16:41:24;92993.66;;;8.05;100.00
11049;BME280;5577;42.706;23.160;2023-04-01T16:44:24;92993.69;;;8.09;100.00
11049;BME280;5577;42.706;23.160;2023-04-01T16:47:12;93017.41;;;8.09;100.00
11049;BME280;5577;42.706;23.160;2023-04-01T16:50:07;93015.00;;;7.97;100.00
11049;BME280;5577;42.706;23.160;2023-04-01T16:53:17;93030.03;;;7.96;100.00
11049;BME280;5577;42.706;23.160;2023-04-01T16:59:07;93035.28;;;7.93;100.00
11049;BME280;5577;42.706;23.160;2023-04-01T17:05:04;93050.53;;;7.80;100.00
11049;BME280;5577;42.706;23.160;2023-04-01T17:11:26;93076.66;;;7.66;100.00
11049;BME280;5577;42.706;23.160;2023-04-01T17:14:28;93089.81;;;7.66;100.00
11049;BME280;5577;42.706;23.160;2023-04-01T17:20:32;93016.81;;;7.18;100.00
11049;BME280;5577;42.706;23.160;2023-04-01T17:36:09;93078.19;;;7.93;100.00
11049;BME280;5577;42.706;23.160;2023-04-01T17:39:20;93086.53;;;7.99;100.00
11049;BME280;5577;42.706;23.160;2023-04-01T17:51:20;93107.59;;;7.50;100.00
11049;BME280;5577;42.706;23.160;2023-04-01T18:03:54;93124.34;;;7.84;100.00
11049;BME280;5577;42.706;23.160;2023-04-01T18:16:07;93143.56;;;7.84;100.00
11049;BME280;5577;42.706;23.160;2023-04-01T18:19:02;93133.41;;;7.86;100.00
11049;BME280;5577;42.706;23.160;2023-04-01T18:21:56;93132.59;;;7.82;100.00
11049;BME280;5577;42.706;23.160;2023-04-01T18:34:10;93150.78;;;7.91;100.00
11049;BME280;5577;42.706;23.160;2023-04-01T18:37:00;93151.16;;;7.89;100.00
11049;BME280;5577;42.706;23.160;2023-04-01T18:43:02;93168.53;;;7.94;100.00
11049;BME280;5577;42.706;23.160;2023-04-01T18:57:15;93163.91;;;8.10;100.00
11049;BME280;5577;42.706;23.160;2023-04-01T19:06:50;93173.63;;;8.06;100.00
11049;BME280;5577;42.706;23.160;2023-04-01T19:09:48;93164.84;;;7.98;100.00
11049;BME280;5577;42.706;23.160;2023-04-01T19:16:04;93170.47;;;7.97;100.00
11049;BME280;5577;42.706;23.160;2023-04-01T19:18:59;93171.53;;;7.92;100.00
11049;BME280;5577;42.706;23.160;2023-04-01T19:22:00;93183.75;;;7.81;100.00
11049;BME280;5577;42.706;23.160;2023-04-01T19:34:27;93174.72;;;7.60;100.00
11049;BME280;5577;42.706;23.160;2023-04-01T19:37:32;93176.63;;;7.59;100.00
11049;BME280;5577;42.706;23.160;2023-04-01T19:43:35;93187.41;;;7.54;100.00
11049;BME280;5577;42.706;23.160;2023-04-01T19:46:34;93174.94;;;7.51;100.00
11049;BME280;5577;42.706;23.160;2023-04-01T19:52:36;93186.81;;;7.61;100.00
11049;BME280;5577;42.706;23.160;2023-04-01T19:55:37;93202.38;;;7.69;100.00
11049;BME280;5577;42.706;23.160;2023-04-01T20:04:48;93216.25;;;7.66;100.00
11049;BME280;5577;42.706;23.160;2023-04-01T20:12:02;93198.16;;;7.46;100.00
11049;BME280;5577;42.706;23.160;2023-04-01T20:17:32;93207.88;;;7.42;100.00
11049;BME280;5577;42.706;23.160;2023-04-01T20:20:24;93189.88;;;7.25;100.00
11049;BME280;5577;42.706;23.160;2023-04-01T20:26:01;93220.00;;;7.46;100.00
11049;BME280;5577;42.706;23.160;2023-04-01T20:29:18;93218.47;;;7.45;100.00
11049;BME280;5577;42.706;23.160;2023-04-01T20:41:27;93149.91;;;6.81;100.00
11049;BME280;5577;42.706;23.160;2023-04-01T20:53:01;93236.81;;;7.04;100.00
11049;BME280;5577;42.706;23.160;2023-04-01T20:56:12;93227.34;;;6.99;100.00
11049;BME280;5577;42.706;23.160;2023-04-01T21:02:39;93236.13;;;7.07;100.00
11049;BME280;5577;42.706;23.160;2023-04-01T21:05:40;93234.66;;;7.09;100.00
11049;BME280;5577;42.706;23.160;2023-04-01T21:30:55;93240.44;;;7.53;100.00
11049;BME280;5577;42.706;23.160;2023-04-01T22:04:56;93243.63;;;7.05;100.00
11049;BME280;5577;42.706;23.160;2023-04-01T22:08:21;93221.84;;;7.08;100.00
11049;BME280;5577;42.706;23.160;2023-04-01T22:26:02;93225.69;;;7.10;100.00
11049;BME280;5577;42.706;23.160;2023-04-01T22:32:01;93226.13;;;6.97;100.00
11049;BME280;5577;42.706;23.160;2023-04-01T22:34:53;93232.66;;;6.84;100.00
11049;BME280;5577;42.706;23.160;2023-04-01T22:43:38;93238.63;;;6.65;100.00
11049;BME280;5577;42.706;23.160;2023-04-01T22:49:48;93238.47;;;6.43;100.00
11049;BME280;5577;42.706;23.160;2023-04-01T22:52:37;93258.16;;;6.49;100.00
11049;BME280;5577;42.706;23.160;2023-04-01T22:55:26;93258.03;;;6.61;100.00
11049;BME280;5577;42.706;23.160;2023-04-01T22:58:18;93260.53;;;6.88;100.00
11049;BME280;5577;42.706;23.160;2023-04-01T23:01:08;93261.16;;;7.01;100.00
11049;BME280;5577;42.706;23.160;2023-04-01T23:03:55;93258.63;;;7.04;100.00
11049;BME280;5577;42.706;23.160;2023-04-01T23:06:46;93264.81;;;7.12;100.00
11049;BME280;5577;42.706;23.160;2023-04-01T23:09:36;93262.03;;;7.24;100.00
11049;BME280;5577;42.706;23.160;2023-04-01T23:12:21;93269.50;;;7.22;100.00
11049;BME280;5577;42.706;23.160;2023-04-01T23:15:12;93212.34;;;6.84;100.00
11049;BME280;5577;42.706;23.160;2023-04-01T23:18:11;93269.31;;;7.11;100.00
11049;BME280;5577;42.706;23.160;2023-04-01T23:21:16;93265.59;;;6.97;100.00
11049;BME280;5577;42.706;23.160;2023-04-01T23:24:38;93273.00;;;6.91;100.00
11049;BME280;5577;42.706;23.160;2023-04-01T23:27:41;93278.38;;;6.79;100.00
11049;BME280;5577;42.706;23.160;2023-04-01T23:33:27;93272.03;;;6.65;100.00
11049;BME280;5577;42.706;23.160;2023-04-01T23:36:14;93270.69;;;6.55;100.00
11049;BME280;5577;42.706;23.160;2023-04-01T23:39:04;93269.00;;;6.47;100.00
11049;BME280;5577;42.706;23.160;2023-04-01T23:41:51;93268.22;;;6.47;100.00
11049;BME280;5577;42.706;23.160;2023-04-01T23:44:37;93273.81;;;6.30;100.00
11049;BME280;5577;42.706;23.160;2023-04-01T23:47:24;93226.94;;;6.01;100.00
11049;BME280;5577;42.706;23.160;2023-04-01T23:50:16;93275.88;;;6.36;100.00
11049;BME280;5577;42.706;23.160;2023-04-01T23:53:08;93278.31;;;6.45;100.00
11049;BME280;5577;42.706;23.160;2023-04-01T23:55:54;93269.84;;;6.51;100.00
11049;BME280;5577;42.706;23.160;2023-04-01T23:58:44;93257.44;;;6.67;100.00
